createdAt,value
2017-10-29T00:00:06.000Z,17.7
2017-10-29T00:10:03.000Z,17.7
2017-10-29T00:20:03.000Z,17.5
2017-10-29T00:30:03.000Z,17.3
2017-10-29T00:40:03.000Z,17.2
2017-10-29T00:50:03.000Z,17.2
2017-10-29T02:00:03.000Z,17.2
2017-10-29T02:10:03.000Z,17.2
2017-10-29T02:20:03.000Z,17.2
2017-10-29T02:30:03.000Z,17.2
2017-10-29T02:40:03.000Z,17.2
2017-10-29T02:50:03.000Z,17.2
2017-10-29T03:00:03.000Z,17.2
2017-10-29T03:10:03.000Z,17.2
2017-10-29T03:20:03.000Z,17.2
2017-10-29T03:30:03.000Z,17.2
2017-10-29T03:40:06.000Z,17.2
2017-10-29T03:50:03.000Z,17.2
2017-10-29T04:00:03.000Z,17.2
2017-10-29T04:10:03.000Z,17.2
2017-10-29T04:20:03.000Z,17.2
2017-10-29T04:30:03.000Z,17.2
2017-10-29T04:40:03.000Z,17.2
2017-10-29T04:50:03.000Z,17.2
2017-10-29T05:00:03.000Z,17.2
2017-10-29T05:10:03.000Z,17.2
2017-10-29T05:20:03.000Z,17.2
2017-10-29T05:30:03.000Z,17.2
2017-10-29T05:40:03.000Z,17.2
2017-10-29T05:50:03.000Z,17.2
2017-10-29T06:00:03.000Z,17.2
2017-10-29T06:10:03.000Z,17.2
2017-10-29T06:20:06.000Z,17.2
2017-10-29T06:30:03.000Z,17.2
2017-10-29T06:40:03.000Z,17.2
2017-10-29T06:50:03.000Z,17.2
2017-10-29T07:00:03.000Z,17.2
2017-10-29T07:10:03.000Z,17.2
2017-10-29T07:20:03.000Z,17.2
2017-10-29T07:30:03.000Z,17.2
2017-10-29T07:40:03.000Z,17.2
2017-10-29T07:50:03.000Z,17.2
2017-10-29T08:00:03.000Z,17.2
2017-10-29T08:10:03.000Z,17.2
2017-10-29T08:20:03.000Z,17.2
2017-10-29T08:30:03.000Z,17.2
2017-10-29T08:40:03.000Z,17.2
2017-10-29T08:50:03.000Z,17.2
2017-10-29T09:00:06.000Z,17.2
2017-10-29T09:10:03.000Z,17.2
2017-10-29T09:20:03.000Z,17.2
2017-10-29T09:30:03.000Z,17.2
2017-10-29T09:40:03.000Z,17.5
2017-10-29T09:50:03.000Z,17.9
2017-10-29T10:00:03.000Z,18.1
2017-10-29T10:10:03.000Z,18.2
2017-10-29T10:20:03.000Z,18.1
2017-10-29T10:30:03.000Z,18.2
2017-10-29T10:40:03.000Z,18.2
2017-10-29T10:50:03.000Z,18.2
2017-10-29T11:00:03.000Z,18.6
2017-10-29T11:10:03.000Z,18.6
2017-10-29T11:20:03.000Z,18.8
2017-10-29T11:30:03.000Z,18.6
2017-10-29T11:40:06.000Z,18.6
2017-10-29T11:50:03.000Z,18.4
2017-10-29T12:00:03.000Z,18.4
2017-10-29T12:10:03.000Z,18.4
2017-10-29T12:20:03.000Z,18.4
2017-10-29T12:30:03.000Z,18.4
2017-10-29T12:40:03.000Z,18.5
2017-10-29T12:50:03.000Z,18.5
2017-10-29T13:00:03.000Z,18.6
2017-10-29T13:10:03.000Z,18.6
2017-10-29T13:20:03.000Z,18.4
2017-10-29T13:30:03.000Z,18.4
2017-10-29T13:40:03.000Z,18.4
2017-10-29T13:50:03.000Z,18.3
2017-10-29T14:00:03.000Z,18.2
2017-10-29T14:10:03.000Z,18.3
2017-10-29T14:20:06.000Z,18.2
2017-10-29T14:30:03.000Z,18.2
2017-10-29T14:40:03.000Z,18.1
2017-10-29T14:50:03.000Z,18.2
2017-10-29T15:00:03.000Z,18.1
2017-10-29T15:10:03.000Z,18.2
2017-10-29T15:20:03.000Z,18.1
2017-10-29T15:30:03.000Z,18.1
2017-10-29T15:40:03.000Z,18.1
2017-10-29T15:50:03.000Z,18.1
2017-10-29T16:00:03.000Z,18.1
2017-10-29T16:10:03.000Z,18.1
2017-10-29T16:20:03.000Z,18.1
2017-10-29T16:30:03.000Z,17.9
2017-10-29T16:40:03.000Z,17.9
2017-10-29T16:50:03.000Z,17.9
2017-10-29T17:00:06.000Z,17.9
2017-10-29T17:10:03.000Z,17.9
2017-10-29T17:20:03.000Z,18
2017-10-29T17:30:03.000Z,18.1
2017-10-29T17:40:03.000Z,18.1
2017-10-29T17:50:03.000Z,18
2017-10-29T18:00:03.000Z,18
2017-10-29T18:10:03.000Z,17.9
2017-10-29T18:20:03.000Z,17.9
2017-10-29T18:30:03.000Z,17.9
2017-10-29T18:40:03.000Z,17.9
2017-10-29T18:50:03.000Z,17.9
2017-10-29T19:00:03.000Z,17.9
2017-10-29T19:10:03.000Z,17.9
2017-10-29T19:20:03.000Z,17.9
2017-10-29T19:30:03.000Z,17.9
2017-10-29T19:40:06.000Z,17.9
2017-10-29T19:50:03.000Z,17.9
2017-10-29T20:00:03.000Z,17.8
2017-10-29T20:10:03.000Z,17.9
2017-10-29T20:20:03.000Z,17.8
2017-10-29T20:30:03.000Z,17.9
2017-10-29T20:40:03.000Z,17.9
2017-10-29T20:50:03.000Z,17.8
2017-10-29T21:00:03.000Z,17.8
2017-10-29T21:10:03.000Z,17.7
2017-10-29T21:20:03.000Z,17.9
2017-10-29T21:30:03.000Z,17.9
2017-10-29T21:40:03.000Z,17.7
2017-10-29T21:50:03.000Z,17.5
2017-10-29T22:00:03.000Z,17.3
2017-10-29T22:10:03.000Z,17.2
2017-10-29T22:20:06.000Z,17.2
2017-10-29T22:30:03.000Z,17.2
2017-10-29T22:40:03.000Z,17.2
2017-10-29T22:50:03.000Z,17.2
2017-10-29T23:00:03.000Z,17.2
2017-10-29T23:10:03.000Z,17.2
2017-10-29T23:20:03.000Z,17.2
2017-10-29T23:30:03.000Z,17.2
2017-10-29T23:40:03.000Z,17.2
2017-10-29T23:50:03.000Z,17.2
